sensor_id;sensor_type;location;lat;lon;timestamp;pressure;altitude;pressure_sealevel;temperature;humidity
73245;BME280;61460;41.158;-73.238;2022-12-07T00:02:12;102583.80;;;22.89;46.22
73245;BME280;61460;41.158;-73.238;2022-12-07T00:04:43;102586.64;;;22.92;46.28
73245;BME280;61460;41.158;-73.238;2022-12-07T00:07:13;102588.37;;;23.00;46.18
73245;BME280;61460;41.158;-73.238;2022-12-07T00:09:44;102590.51;;;22.97;46.26
73245;BME280;61460;41.158;-73.238;2022-12-07T00:12:15;102599.42;;;22.94;46.44
73245;BME280;61460;41.158;-73.238;2022-12-07T00:14:45;102597.42;;;22.92;46.51
73245;BME280;61460;41.158;-73.238;2022-12-07T00:17:17;102600.12;;;23.02;46.32
73245;BME280;61460;41.158;-73.238;2022-12-07T00:19:46;102598.42;;;22.83;46.52
73245;BME280;61460;41.158;-73.238;2022-12-07T00:22:18;102598.04;;;23.04;46.00
73245;BME280;61460;41.158;-73.238;2022-12-07T00:24:47;102596.56;;;22.98;46.00
73245;BME280;61460;41.158;-73.238;2022-12-07T00:27:19;102587.78;;;23.12;45.75
73245;BME280;61460;41.158;-73.238;2022-12-07T00:29:49;102576.93;;;23.13;45.98
73245;BME280;61460;41.158;-73.238;2022-12-07T00:32:19;102577.77;;;23.17;45.94
73245;BME280;61460;41.158;-73.238;2022-12-07T00:34:50;102567.15;;;23.18;46.04
73245;BME280;61460;41.158;-73.238;2022-12-07T00:37:21;102571.55;;;23.23;46.05
73245;BME280;61460;41.158;-73.238;2022-12-07T00:39:51;102577.85;;;23.26;46.06
73245;BME280;61460;41.158;-73.238;2022-12-07T00:42:23;102580.31;;;23.28;45.94
73245;BME280;61460;41.158;-73.238;2022-12-07T00:44:52;102582.94;;;23.19;46.20
73245;BME280;61460;41.158;-73.238;2022-12-07T00:47:24;102579.05;;;23.14;46.41
73245;BME280;61460;41.158;-73.238;2022-12-07T00:49:54;102574.26;;;23.13;46.43
73245;BME280;61460;41.158;-73.238;2022-12-07T00:52:24;102573.62;;;23.09;46.55
73245;BME280;61460;41.158;-73.238;2022-12-07T00:54:55;102559.29;;;23.17;46.44
73245;BME280;61460;41.158;-73.238;2022-12-07T00:57:26;102557.93;;;23.12;46.77
73245;BME280;61460;41.158;-73.238;2022-12-07T00:59:57;102556.32;;;23.17;46.66
73245;BME280;61460;41.158;-73.238;2022-12-07T01:02:27;102553.72;;;23.08;47.00
73245;BME280;61460;41.158;-73.238;2022-12-07T01:04:57;102558.16;;;23.14;47.25
73245;BME280;61460;41.158;-73.238;2022-12-07T01:07:28;102556.62;;;23.15;47.50
73245;BME280;61460;41.158;-73.238;2022-12-07T01:09:58;102551.88;;;23.24;46.91
73245;BME280;61460;41.158;-73.238;2022-12-07T01:12:29;102551.22;;;23.20;46.88
73245;BME280;61460;41.158;-73.238;2022-12-07T01:15:00;102546.37;;;23.15;46.85
73245;BME280;61460;41.158;-73.238;2022-12-07T01:17:30;102545.47;;;23.09;47.03
73245;BME280;61460;41.158;-73.238;2022-12-07T01:20:01;102542.16;;;23.10;46.79
73245;BME280;61460;41.158;-73.238;2022-12-07T01:22:33;102544.45;;;23.08;46.75
73245;BME280;61460;41.158;-73.238;2022-12-07T01:25:02;102552.26;;;23.07;46.72
73245;BME280;61460;41.158;-73.238;2022-12-07T01:27:33;102562.40;;;23.04;46.64
73245;BME280;61460;41.158;-73.238;2022-12-07T01:30:05;102561.50;;;23.00;46.75
73245;BME280;61460;41.158;-73.238;2022-12-07T01:32:34;102559.23;;;23.01;46.51
73245;BME280;61460;41.158;-73.238;2022-12-07T01:35:05;102552.62;;;22.76;46.93
73245;BME280;61460;41.158;-73.238;2022-12-07T01:37:36;102547.90;;;22.83;46.91
73245;BME280;61460;41.158;-73.238;2022-12-07T01:40:07;102538.15;;;22.85;47.25
73245;BME280;61460;41.158;-73.238;2022-12-07T01:42:36;102526.80;;;22.88;46.95
73245;BME280;61460;41.158;-73.238;2022-12-07T01:47:37;102527.92;;;22.97;47.84
73245;BME280;61460;41.158;-73.238;2022-12-07T01:50:09;102529.29;;;23.02;47.89
73245;BME280;61460;41.158;-73.238;2022-12-07T01:52:40;102529.88;;;23.12;47.86
73245;BME280;61460;41.158;-73.238;2022-12-07T01:55:12;102534.53;;;23.26;47.72
73245;BME280;61460;41.158;-73.238;2022-12-07T01:57:43;102533.76;;;23.29;47.77
73245;BME280;61460;41.158;-73.238;2022-12-07T02:00:12;102535.69;;;23.23;48.01
73245;BME280;61460;41.158;-73.238;2022-12-07T02:02:45;102535.26;;;23.22;48.22
73245;BME280;61460;41.158;-73.238;2022-12-07T02:05:12;102537.71;;;23.27;47.99
73245;BME280;61460;41.158;-73.238;2022-12-07T02:07:43;102543.23;;;23.26;48.12
73245;BME280;61460;41.158;-73.238;2022-12-07T02:10:15;102542.04;;;23.20;48.12
73245;BME280;61460;41.158;-73.238;2022-12-07T02:12:44;102537.67;;;23.26;48.05
73245;BME280;61460;41.158;-73.238;2022-12-07T02:15:15;102540.59;;;23.25;48.20
73245;BME280;61460;41.158;-73.238;2022-12-07T02:17:49;102537.57;;;23.25;47.99
73245;BME280;61460;41.158;-73.238;2022-12-07T02:20:23;102531.48;;;23.32;47.31
73245;BME280;61460;41.158;-73.238;2022-12-07T02:22:58;102533.21;;;23.28;47.52
73245;BME280;61460;41.158;-73.238;2022-12-07T02:25:26;102537.22;;;23.34;47.55
73245;BME280;61460;41.158;-73.238;2022-12-07T02:27:51;102532.06;;;23.37;47.70
73245;BME280;61460;41.158;-73.238;2022-12-07T02:30:20;102532.52;;;23.32;47.96
73245;BME280;61460;41.158;-73.238;2022-12-07T02:32:55;102536.03;;;23.43;47.85
73245;BME280;61460;41.158;-73.238;2022-12-07T02:35:22;102543.52;;;23.43;47.98
73245;BME280;61460;41.158;-73.238;2022-12-07T02:37:59;102545.79;;;23.46;47.89
73245;BME280;61460;41.158;-73.238;2022-12-07T02:40:27;102548.21;;;23.43;48.15
73245;BME280;61460;41.158;-73.238;2022-12-07T02:42:55;102543.50;;;23.45;48.12
73245;BME280;61460;41.158;-73.238;2022-12-07T02:45:23;102540.60;;;23.52;47.66
73245;BME280;61460;41.158;-73.238;2022-12-07T02:47:56;102543.61;;;23.47;47.73
73245;BME280;61460;41.158;-73.238;2022-12-07T02:50:24;102535.52;;;23.50;48.00
73245;BME280;61460;41.158;-73.238;2022-12-07T02:52:54;102537.14;;;23.48;48.03
73245;BME280;61460;41.158;-73.238;2022-12-07T02:55:29;102529.86;;;23.45;47.85
73245;BME280;61460;41.158;-73.238;2022-12-07T02:58:06;102525.97;;;23.45;47.77
73245;BME280;61460;41.158;-73.238;2022-12-07T03:00:26;102533.49;;;23.38;48.01
73245;BME280;61460;41.158;-73.238;2022-12-07T03:02:59;102522.47;;;23.43;47.79
73245;BME280;61460;41.158;-73.238;2022-12-07T03:05:36;102518.14;;;23.42;47.74
73245;BME280;61460;41.158;-73.238;2022-12-07T03:08:01;102513.18;;;23.42;48.29
73245;BME280;61460;41.158;-73.238;2022-12-07T03:10:35;102515.49;;;23.59;47.36
73245;BME280;61460;41.158;-73.238;2022-12-07T03:13:03;102509.99;;;23.51;47.39
73245;BME280;61460;41.158;-73.238;2022-12-07T03:15:33;102506.44;;;23.44;47.56
73245;BME280;61460;41.158;-73.238;2022-12-07T03:18:00;102504.06;;;23.46;47.69
73245;BME280;61460;41.158;-73.238;2022-12-07T03:20:30;102494.28;;;23.50;47.71
73245;BME280;61460;41.158;-73.238;2022-12-07T03:23:01;102496.31;;;23.50;47.79
73245;BME280;61460;41.158;-73.238;2022-12-07T03:25:33;102494.94;;;23.55;47.67
73245;BME280;61460;41.158;-73.238;2022-12-07T03:28:04;102496.32;;;23.59;47.34
73245;BME280;61460;41.158;-73.238;2022-12-07T03:30:36;102495.11;;;23.58;47.37
73245;BME280;61460;41.158;-73.238;2022-12-07T03:33:06;102491.49;;;23.59;47.04
73245;BME280;61460;41.158;-73.238;2022-12-07T03:35:37;102488.14;;;23.46;47.75
73245;BME280;61460;41.158;-73.238;2022-12-07T03:38:11;102481.86;;;23.32;48.46
73245;BME280;61460;41.158;-73.238;2022-12-07T03:40:39;102485.07;;;23.28;48.74
73245;BME280;61460;41.158;-73.238;2022-12-07T03:43:06;102482.11;;;23.39;48.49
73245;BME280;61460;41.158;-73.238;2022-12-07T03:45:40;102481.54;;;23.28;48.68
73245;BME280;61460;41.158;-73.238;2022-12-07T03:48:10;102483.16;;;23.19;48.90
73245;BME280;61460;41.158;-73.238;2022-12-07T03:50:40;102484.87;;;23.15;48.73
73245;BME280;61460;41.158;-73.238;2022-12-07T03:53:12;102488.53;;;23.08;49.34
73245;BME280;61460;41.158;-73.238;2022-12-07T03:55:42;102484.31;;;23.13;48.93
73245;BME280;61460;41.158;-73.238;2022-12-07T03:58:12;102483.96;;;23.07;49.25
73245;BME280;61460;41.158;-73.238;2022-12-07T04:00:41;102474.00;;;23.05;48.57
73245;BME280;61460;41.158;-73.238;2022-12-07T04:03:10;102468.47;;;23.11;48.42
73245;BME280;61460;41.158;-73.238;2022-12-07T04:05:41;102468.54;;;23.05;49.10
73245;BME280;61460;41.158;-73.238;2022-12-07T04:08:11;102462.16;;;23.11;48.86
73245;BME280;61460;41.158;-73.238;2022-12-07T04:10:41;102460.95;;;23.13;48.69
73245;BME280;61460;41.158;-73.238;2022-12-07T04:13:12;102461.97;;;23.08;48.83
73245;BME280;61460;41.158;-73.238;2022-12-07T04:15:43;102459.49;;;23.04;49.59
73245;BME280;61460;41.158;-73.238;2022-12-07T04:18:14;102457.92;;;23.08;49.16
73245;BME280;61460;41.158;-73.238;2022-12-07T04:20:45;102448.55;;;23.09;49.10
73245;BME280;61460;41.158;-73.238;2022-12-07T04:23:15;102444.22;;;23.10;48.81
73245;BME280;61460;41.158;-73.238;2022-12-07T04:25:48;102436.40;;;23.10;48.64
73245;BME280;61460;41.158;-73.238;2022-12-07T04:28:16;102433.87;;;23.06;49.07
73245;BME280;61460;41.158;-73.238;2022-12-07T04:30:46;102437.20;;;23.01;49.17
73245;BME280;61460;41.158;-73.238;2022-12-07T04:33:17;102430.04;;;22.94;49.25
73245;BME280;61460;41.158;-73.238;2022-12-07T04:35:48;102425.96;;;23.02;49.09
73245;BME280;61460;41.158;-73.238;2022-12-07T04:38:18;102429.49;;;23.05;48.92
73245;BME280;61460;41.158;-73.238;2022-12-07T04:40:49;102423.42;;;23.06;48.87
73245;BME280;61460;41.158;-73.238;2022-12-07T04:43:19;102416.61;;;23.02;49.03
73245;BME280;61460;41.158;-73.238;2022-12-07T04:45:50;102415.48;;;23.04;49.04
73245;BME280;61460;41.158;-73.238;2022-12-07T04:48:20;102413.95;;;23.02;48.99
73245;BME280;61460;41.158;-73.238;2022-12-07T04:50:52;102413.73;;;22.99;49.08
73245;BME280;61460;41.158;-73.238;2022-12-07T04:53:22;102408.86;;;23.03;48.98
73245;BME280;61460;41.158;-73.238;2022-12-07T04:55:52;102416.32;;;23.01;49.05
73245;BME280;61460;41.158;-73.238;2022-12-07T04:58:23;102408.67;;;22.99;49.09
73245;BME280;61460;41.158;-73.238;2022-12-07T05:00:54;102407.32;;;22.96;49.16
73245;BME280;61460;41.158;-73.238;2022-12-07T05:03:24;102407.15;;;23.04;49.33
73245;BME280;61460;41.158;-73.238;2022-12-07T05:05:55;102398.65;;;23.04;49.21
73245;BME280;61460;41.158;-73.238;2022-12-07T05:08:25;102396.54;;;23.03;49.20
73245;BME280;61460;41.158;-73.238;2022-12-07T05:10:55;102395.89;;;22.99;49.26
73245;BME280;61460;41.158;-73.238;2022-12-07T05:13:26;102391.60;;;22.65;49.80
73245;BME280;61460;41.158;-73.238;2022-12-07T05:15:57;102386.61;;;22.86;49.07
73245;BME280;61460;41.158;-73.238;2022-12-07T05:18:28;102382.20;;;22.84;49.17
73245;BME280;61460;41.158;-73.238;2022-12-07T05:20:58;102385.75;;;22.93;49.04
73245;BME280;61460;41.158;-73.238;2022-12-07T05:23:28;102380.34;;;22.95;49.02
73245;BME280;61460;41.158;-73.238;2022-12-07T05:25:59;102376.95;;;22.96;48.99
73245;BME280;61460;41.158;-73.238;2022-12-07T05:28:30;102379.19;;;22.98;48.96
73245;BME280;61460;41.158;-73.238;2022-12-07T05:31:00;102383.58;;;22.95;48.99
73245;BME280;61460;41.158;-73.238;2022-12-07T05:33:31;102377.64;;;22.98;48.75
73245;BME280;61460;41.158;-73.238;2022-12-07T05:36:02;102366.09;;;22.98;48.75
73245;BME280;61460;41.158;-73.238;2022-12-07T05:38:32;102368.99;;;23.03;48.52
73245;BME280;61460;41.158;-73.238;2022-12-07T05:41:05;102358.76;;;23.00;48.66
73245;BME280;61460;41.158;-73.238;2022-12-07T05:43:34;102359.33;;;23.03;48.60
73245;BME280;61460;41.158;-73.238;2022-12-07T05:46:04;102360.44;;;22.99;48.85
73245;BME280;61460;41.158;-73.238;2022-12-07T05:48:34;102361.80;;;23.03;48.91
73245;BME280;61460;41.158;-73.238;2022-12-07T05:51:06;102357.61;;;23.03;48.81
73245;BME280;61460;41.158;-73.238;2022-12-07T05:53:46;102357.76;;;23.05;48.87
73245;BME280;61460;41.158;-73.238;2022-12-07T05:56:07;102352.80;;;23.03;49.15
73245;BME280;61460;41.158;-73.238;2022-12-07T05:58:37;102349.80;;;22.99;49.33
73245;BME280;61460;41.158;-73.238;2022-12-07T06:01:07;102348.37;;;23.00;49.56
73245;BME280;61460;41.158;-73.238;2022-12-07T06:03:39;102348.08;;;23.06;49.32
73245;BME280;61460;41.158;-73.238;2022-12-07T06:06:09;102347.21;;;23.03;49.45
73245;BME280;61460;41.158;-73.238;2022-12-07T06:08:39;102341.90;;;23.10;49.24
73245;BME280;61460;41.158;-73.238;2022-12-07T06:11:10;102340.98;;;23.08;49.32
73245;BME280;61460;41.158;-73.238;2022-12-07T06:13:40;102340.16;;;22.79;49.84
73245;BME280;61460;41.158;-73.238;2022-12-07T06:16:11;102344.71;;;22.98;49.16
73245;BME280;61460;41.158;-73.238;2022-12-07T06:18:41;102348.35;;;23.06;48.78
73245;BME280;61460;41.158;-73.238;2022-12-07T06:21:12;102336.19;;;23.07;48.87
73245;BME280;61460;41.158;-73.238;2022-12-07T06:23:43;102335.32;;;23.18;48.72
73245;BME280;61460;41.158;-73.238;2022-12-07T06:26:14;102338.12;;;23.24;48.49
73245;BME280;61460;41.158;-73.238;2022-12-07T06:28:44;102342.06;;;23.22;48.60
73245;BME280;61460;41.158;-73.238;2022-12-07T06:31:15;102346.91;;;23.25;48.51
73245;BME280;61460;41.158;-73.238;2022-12-07T06:33:45;102342.86;;;23.30;48.22
73245;BME280;61460;41.158;-73.238;2022-12-07T06:36:16;102339.44;;;23.31;48.19
73245;BME280;61460;41.158;-73.238;2022-12-07T06:38:46;102340.93;;;23.29;48.32
73245;BME280;61460;41.158;-73.238;2022-12-07T06:41:18;102334.73;;;23.28;48.32
73245;BME280;61460;41.158;-73.238;2022-12-07T06:43:48;102337.27;;;23.35;48.19
73245;BME280;61460;41.158;-73.238;2022-12-07T06:46:19;102335.13;;;23.25;48.39
73245;BME280;61460;41.158;-73.238;2022-12-07T06:48:49;102338.05;;;23.29;48.40
73245;BME280;61460;41.158;-73.238;2022-12-07T06:51:20;102337.24;;;23.31;48.37
73245;BME280;61460;41.158;-73.238;2022-12-07T06:53:50;102343.53;;;23.31;48.39
73245;BME280;61460;41.158;-73.238;2022-12-07T06:56:21;102341.87;;;23.30;48.52
73245;BME280;61460;41.158;-73.238;2022-12-07T06:58:51;102338.45;;;23.32;48.34
73245;BME280;61460;41.158;-73.238;2022-12-07T07:01:22;102340.66;;;23.30;48.67
73245;BME280;61460;41.158;-73.238;2022-12-07T07:03:52;102337.20;;;23.27;48.79
73245;BME280;61460;41.158;-73.238;2022-12-07T07:06:24;102333.71;;;23.24;48.95
73245;BME280;61460;41.158;-73.238;2022-12-07T07:08:53;102335.62;;;23.26;48.85
73245;BME280;61460;41.158;-73.238;2022-12-07T07:11:24;102334.08;;;23.26;48.90
73245;BME280;61460;41.158;-73.238;2022-12-07T07:13:55;102333.07;;;23.28;48.77
73245;BME280;61460;41.158;-73.238;2022-12-07T07:16:25;102334.82;;;23.05;48.97
73245;BME280;61460;41.158;-73.238;2022-12-07T07:18:56;102331.17;;;23.13;48.69
73245;BME280;61460;41.158;-73.238;2022-12-07T07:21:26;102321.53;;;23.20;48.66
73245;BME280;61460;41.158;-73.238;2022-12-07T07:23:58;102322.70;;;23.14;48.79
73245;BME280;61460;41.158;-73.238;2022-12-07T07:26:28;102314.05;;;23.17;48.68
73245;BME280;61460;41.158;-73.238;2022-12-07T07:28:59;102314.07;;;23.33;48.36
73245;BME280;61460;41.158;-73.238;2022-12-07T07:31:29;102311.40;;;23.37;48.31
73245;BME280;61460;41.158;-73.238;2022-12-07T07:34:00;102313.20;;;23.31;48.47
73245;BME280;61460;41.158;-73.238;2022-12-07T07:36:30;102309.56;;;23.35;48.35
73245;BME280;61460;41.158;-73.238;2022-12-07T07:39:02;102304.70;;;23.37;48.28
73245;BME280;61460;41.158;-73.238;2022-12-07T07:41:32;102297.93;;;23.30;48.52
73245;BME280;61460;41.158;-73.238;2022-12-07T07:44:03;102301.84;;;23.27;48.65
73245;BME280;61460;41.158;-73.238;2022-12-07T07:46:32;102298.98;;;23.35;48.44
73245;BME280;61460;41.158;-73.238;2022-12-07T07:49:05;102294.87;;;23.24;48.66
73245;BME280;61460;41.158;-73.238;2022-12-07T07:51:33;102291.48;;;23.25;48.69
73245;BME280;61460;41.158;-73.238;2022-12-07T07:54:05;102284.72;;;23.30;48.23
73245;BME280;61460;41.158;-73.238;2022-12-07T07:56:35;102283.48;;;23.27;47.93
73245;BME280;61460;41.158;-73.238;2022-12-07T07:59:05;102282.10;;;23.26;48.11
73245;BME280;61460;41.158;-73.238;2022-12-07T08:01:36;102284.40;;;23.23;48.23
73245;BME280;61460;41.158;-73.238;2022-12-07T08:04:07;102282.77;;;23.11;48.61
73245;BME280;61460;41.158;-73.238;2022-12-07T08:06:37;102285.69;;;23.15;48.33
73245;BME280;61460;41.158;-73.238;2022-12-07T08:09:08;102280.79;;;23.14;48.43
73245;BME280;61460;41.158;-73.238;2022-12-07T08:11:38;102278.83;;;23.11;48.55
73245;BME280;61460;41.158;-73.238;2022-12-07T08:14:10;102271.01;;;23.16;48.49
73245;BME280;61460;41.158;-73.238;2022-12-07T08:16:40;102276.92;;;23.20;48.45
73245;BME280;61460;41.158;-73.238;2022-12-07T08:19:10;102273.95;;;23.11;48.98
73245;BME280;61460;41.158;-73.238;2022-12-07T08:21:41;102271.36;;;23.12;48.90
73245;BME280;61460;41.158;-73.238;2022-12-07T08:24:12;102265.39;;;23.10;48.90
73245;BME280;61460;41.158;-73.238;2022-12-07T08:26:43;102263.75;;;23.08;49.00
73245;BME280;61460;41.158;-73.238;2022-12-07T08:29:13;102266.71;;;23.06;49.17
73245;BME280;61460;41.158;-73.238;2022-12-07T08:31:44;102264.92;;;23.11;49.13
73245;BME280;61460;41.158;-73.238;2022-12-07T08:34:14;102260.60;;;23.12;49.18
73245;BME280;61460;41.158;-73.238;2022-12-07T08:36:44;102254.37;;;23.11;49.25
73245;BME280;61460;41.158;-73.238;2022-12-07T08:39:15;102254.98;;;22.83;49.76
73245;BME280;61460;41.158;-73.238;2022-12-07T08:41:46;102253.90;;;23.00;49.14
73245;BME280;61460;41.158;-73.238;2022-12-07T08:44:17;102251.13;;;23.10;49.21
73245;BME280;61460;41.158;-73.238;2022-12-07T08:46:49;102252.61;;;23.14;48.87
73245;BME280;61460;41.158;-73.238;2022-12-07T08:49:21;102245.74;;;23.14;48.93
73245;BME280;61460;41.158;-73.238;2022-12-07T08:51:48;102243.79;;;23.14;48.99
73245;BME280;61460;41.158;-73.238;2022-12-07T08:54:19;102241.08;;;23.15;49.17
73245;BME280;61460;41.158;-73.238;2022-12-07T08:56:50;102243.06;;;23.14;49.22
73245;BME280;61460;41.158;-73.238;2022-12-07T08:59:20;102243.11;;;23.18;49.16
73245;BME280;61460;41.158;-73.238;2022-12-07T09:01:51;102238.05;;;23.17;48.95
73245;BME280;61460;41.158;-73.238;2022-12-07T09:04:21;102234.07;;;23.10;49.25
73245;BME280;61460;41.158;-73.238;2022-12-07T09:06:52;102229.45;;;23.12;49.21
73245;BME280;61460;41.158;-73.238;2022-12-07T09:09:23;102229.03;;;23.07;49.54
73245;BME280;61460;41.158;-73.238;2022-12-07T09:11:53;102226.33;;;23.15;49.23
73245;BME280;61460;41.158;-73.238;2022-12-07T09:14:24;102223.30;;;23.18;49.15
73245;BME280;61460;41.158;-73.238;2022-12-07T09:16:55;102223.81;;;23.05;49.52
73245;BME280;61460;41.158;-73.238;2022-12-07T09:19:25;102217.58;;;23.22;48.57
73245;BME280;61460;41.158;-73.238;2022-12-07T09:21:56;102220.72;;;23.20;48.35
73245;BME280;61460;41.158;-73.238;2022-12-07T09:24:26;102217.91;;;23.21;48.41
73245;BME280;61460;41.158;-73.238;2022-12-07T09:26:57;102215.13;;;23.10;48.74
73245;BME280;61460;41.158;-73.238;2022-12-07T09:29:27;102214.34;;;23.08;48.72
73245;BME280;61460;41.158;-73.238;2022-12-07T09:31:57;102219.68;;;23.11;48.87
73245;BME280;61460;41.158;-73.238;2022-12-07T09:34:31;102216.58;;;23.10;48.88
73245;BME280;61460;41.158;-73.238;2022-12-07T09:37:01;102221.35;;;23.12;48.77
73245;BME280;61460;41.158;-73.238;2022-12-07T09:39:30;102221.30;;;23.07;48.88
73245;BME280;61460;41.158;-73.238;2022-12-07T09:42:03;102222.75;;;23.05;48.84
73245;BME280;61460;41.158;-73.238;2022-12-07T09:44:32;102219.82;;;23.09;48.73
73245;BME280;61460;41.158;-73.238;2022-12-07T09:47:02;102226.02;;;23.00;48.90
73245;BME280;61460;41.158;-73.238;2022-12-07T09:49:32;102220.27;;;23.14;48.53
73245;BME280;61460;41.158;-73.238;2022-12-07T09:54:36;102223.17;;;23.00;48.88
73245;BME280;61460;41.158;-73.238;2022-12-07T09:57:10;102223.28;;;23.01;48.97
73245;BME280;61460;41.158;-73.238;2022-12-07T09:59:35;102222.43;;;23.04;48.86
73245;BME280;61460;41.158;-73.238;2022-12-07T10:04:38;102221.86;;;23.03;48.98
73245;BME280;61460;41.158;-73.238;2022-12-07T10:07:06;102220.54;;;22.70;49.48
73245;BME280;61460;41.158;-73.238;2022-12-07T10:09:37;102215.37;;;22.94;48.92
73245;BME280;61460;41.158;-73.238;2022-12-07T10:12:11;102218.35;;;23.02;49.06
73245;BME280;61460;41.158;-73.238;2022-12-07T10:14:40;102221.79;;;23.02;48.73
73245;BME280;61460;41.158;-73.238;2022-12-07T10:19:39;102220.63;;;23.05;48.81
73245;BME280;61460;41.158;-73.238;2022-12-07T10:22:12;102206.81;;;23.06;48.93
73245;BME280;61460;41.158;-73.238;2022-12-07T10:24:41;102207.14;;;23.09;48.90
73245;BME280;61460;41.158;-73.238;2022-12-07T10:27:18;102214.54;;;23.00;49.27
73245;BME280;61460;41.158;-73.238;2022-12-07T10:29:47;102215.67;;;23.05;49.13
73245;BME280;61460;41.158;-73.238;2022-12-07T10:34:43;102211.02;;;23.14;49.15
73245;BME280;61460;41.158;-73.238;2022-12-07T10:37:16;102210.55;;;23.15;49.18
73245;BME280;61460;41.158;-73.238;2022-12-07T10:39:46;102214.04;;;23.15;49.17
73245;BME280;61460;41.158;-73.238;2022-12-07T10:42:19;102215.17;;;23.13;49.12
73245;BME280;61460;41.158;-73.238;2022-12-07T10:44:45;102204.23;;;23.23;48.68
73245;BME280;61460;41.158;-73.238;2022-12-07T10:47:25;102211.14;;;23.15;48.44
73245;BME280;61460;41.158;-73.238;2022-12-07T10:52:28;102215.77;;;23.10;48.84
73245;BME280;61460;41.158;-73.238;2022-12-07T10:54:55;102215.79;;;23.15;48.71
73245;BME280;61460;41.158;-73.238;2022-12-07T10:57:29;102226.34;;;23.10;48.84
73245;BME280;61460;41.158;-73.238;2022-12-07T11:00:00;102217.68;;;23.12;48.86
73245;BME280;61460;41.158;-73.238;2022-12-07T11:02:25;102227.88;;;23.12;49.00
73245;BME280;61460;41.158;-73.238;2022-12-07T11:04:59;102219.32;;;23.14;48.94
73245;BME280;61460;41.158;-73.238;2022-12-07T11:07:27;102214.89;;;23.12;48.95
73245;BME280;61460;41.158;-73.238;2022-12-07T11:09:58;102217.27;;;23.12;48.94
73245;BME280;61460;41.158;-73.238;2022-12-07T11:12:29;102217.64;;;23.09;48.93
73245;BME280;61460;41.158;-73.238;2022-12-07T11:14:58;102223.30;;;23.13;48.93
73245;BME280;61460;41.158;-73.238;2022-12-07T11:17:30;102218.57;;;23.15;48.66
73245;BME280;61460;41.158;-73.238;2022-12-07T11:20:03;102213.94;;;23.21;48.47
73245;BME280;61460;41.158;-73.238;2022-12-07T11:22:31;102215.14;;;23.17;48.62
73245;BME280;61460;41.158;-73.238;2022-12-07T11:25:00;102213.90;;;23.18;48.64
73245;BME280;61460;41.158;-73.238;2022-12-07T11:27:33;102216.95;;;23.16;48.75
73245;BME280;61460;41.158;-73.238;2022-12-07T11:30:08;102213.45;;;22.73;49.66
73245;BME280;61460;41.158;-73.238;2022-12-07T11:32:38;102207.99;;;22.93;49.07
73245;BME280;61460;41.158;-73.238;2022-12-07T11:35:05;102211.76;;;22.85;49.67
73245;BME280;61460;41.158;-73.238;2022-12-07T11:37:31;102217.56;;;22.99;49.08
73245;BME280;61460;41.158;-73.238;2022-12-07T11:40:02;102217.35;;;22.99;49.07
73245;BME280;61460;41.158;-73.238;2022-12-07T11:42:33;102214.79;;;23.00;49.65
73245;BME280;61460;41.158;-73.238;2022-12-07T11:45:03;102207.86;;;23.01;49.33
73245;BME280;61460;41.158;-73.238;2022-12-07T11:47:46;102205.86;;;23.00;49.46
73245;BME280;61460;41.158;-73.238;2022-12-07T11:50:13;102210.05;;;23.06;49.10
73245;BME280;61460;41.158;-73.238;2022-12-07T11:52:40;102210.79;;;23.00;49.63
73245;BME280;61460;41.158;-73.238;2022-12-07T11:55:02;102208.08;;;23.09;49.20
73245;BME280;61460;41.158;-73.238;2022-12-07T11:57:36;102210.86;;;23.14;49.41
73245;BME280;61460;41.158;-73.238;2022-12-07T12:00:08;102212.40;;;23.14;49.43
73245;BME280;61460;41.158;-73.238;2022-12-07T12:02:37;102208.01;;;23.11;49.55
73245;BME280;61460;41.158;-73.238;2022-12-07T12:05:13;102211.28;;;23.13;49.47
73245;BME280;61460;41.158;-73.238;2022-12-07T12:07:35;102211.52;;;23.19;49.58
73245;BME280;61460;41.158;-73.238;2022-12-07T12:10:13;102208.20;;;23.14;49.67
73245;BME280;61460;41.158;-73.238;2022-12-07T12:12:48;102213.18;;;23.20;49.62
73245;BME280;61460;41.158;-73.238;2022-12-07T12:15:18;102210.27;;;23.15;49.66
73245;BME280;61460;41.158;-73.238;2022-12-07T12:17:51;102217.19;;;23.14;49.50
73245;BME280;61460;41.158;-73.238;2022-12-07T12:20:19;102219.33;;;23.11;49.61
73245;BME280;61460;41.158;-73.238;2022-12-07T12:22:40;102221.37;;;23.04;49.70
73245;BME280;61460;41.158;-73.238;2022-12-07T12:25:19;102205.70;;;23.06;49.74
73245;BME280;61460;41.158;-73.238;2022-12-07T12:27:40;102205.73;;;23.28;49.25
73245;BME280;61460;41.158;-73.238;2022-12-07T12:32:42;102194.43;;;23.31;49.51
73245;BME280;61460;41.158;-73.238;2022-12-07T12:37:44;102199.86;;;23.51;49.17
73245;BME280;61460;41.158;-73.238;2022-12-07T12:42:46;102203.96;;;23.48;49.16
73245;BME280;61460;41.158;-73.238;2022-12-07T12:45:19;102206.96;;;23.31;49.93
73245;BME280;61460;41.158;-73.238;2022-12-07T12:50:18;102212.72;;;23.23;49.88
73245;BME280;61460;41.158;-73.238;2022-12-07T12:52:50;102210.84;;;23.11;50.11
73245;BME280;61460;41.158;-73.238;2022-12-07T12:55:18;102213.53;;;23.11;49.99
73245;BME280;61460;41.158;-73.238;2022-12-07T12:57:46;102217.82;;;23.03;50.11
73245;BME280;61460;41.158;-73.238;2022-12-07T13:00:19;102217.40;;;23.03;50.05
73245;BME280;61460;41.158;-73.238;2022-12-07T13:02:49;102221.79;;;23.02;49.67
73245;BME280;61460;41.158;-73.238;2022-12-07T13:05:20;102220.94;;;23.03;49.09
73245;BME280;61460;41.158;-73.238;2022-12-07T13:07:54;102218.02;;;23.08;49.01
73245;BME280;61460;41.158;-73.238;2022-12-07T13:12:56;102221.19;;;22.97;49.22
73245;BME280;61460;41.158;-73.238;2022-12-07T13:17:56;102218.18;;;22.95;49.31